AQQ10 IFIS: Internet Flight Information System
logo dgac
Martes 06 de Diciembre del 2022
Buscar por aerodromo o helipuerto
Ingrese nombre de aeródromo, localidad o designador OACI:
METAR del 06-12-2022 a las 08:00 UTC
Para mayor información visite www.meteochile.cl
METAR SCCI 060800Z 28011KT 9999 BKN040 02/M00 Q0997 NOSIG
Viento: dirección 280 grados, velocidad 11 nudos
Visibilidad: 10 km o más
Nubes: Nublado a 4000 pies sobre el nivel del aeródromo
Temperatura: 2 °C
Rocío: -0 °C
Humedad_relativa: 87%
Presión: 997 hPa
No se esperan cambios significativos en las próximas 2 horas
METAR del 06-12-2022 a las 08:00 UTC
Para mayor información visite www.meteochile.cl
METAR SCCI 060800Z 28011KT 9999 BKN040 02/M00 Q0997 NOSIG
Viento: dirección 280 grados, velocidad 11 nudos
Visibilidad: 10 km o más
Nubes: Nublado a 4000 pies sobre el nivel del aeródromo
Temperatura: 2 °C
Rocío: -0 °C
Humedad_relativa: 87%
Presión: 997 hPa
No se esperan cambios significativos en las próximas 2 horas
METAR del 06-12-2022 a las 08:00 UTC
Para mayor información visite www.meteochile.cl
METAR SCCI 060800Z 28011KT 9999 BKN040 02/M00 Q0997 NOSIG
Viento: dirección 280 grados, velocidad 11 nudos
Visibilidad: 10 km o más
Nubes: Nublado a 4000 pies sobre el nivel del aeródromo
Temperatura: 2 °C
Rocío: -0 °C
Humedad_relativa: 87%
Presión: 997 hPa
No se esperan cambios significativos en las próximas 2 horas
METAR del 06-12-2022 a las 08:00 UTC
Para mayor información visite www.meteochile.cl
METAR SCCI 060800Z 28011KT 9999 BKN040 02/M00 Q0997 NOSIG
Viento: dirección 280 grados, velocidad 11 nudos
Visibilidad: 10 km o más
Nubes: Nublado a 4000 pies sobre el nivel del aeródromo
Temperatura: 2 °C
Rocío: -0 °C
Humedad_relativa: 87%
Presión: 997 hPa
No se esperan cambios significativos en las próximas 2 horas
METAR del 06-12-2022 a las 07:00 UTC
Para mayor información visite www.meteochile.cl
METAR SCCI 060700Z 26009KT 9999 BKN040 02/M00 Q0997 NOSIG
Viento: dirección 260 grados, velocidad 9 nudos
Visibilidad: 10 km o más
Nubes: Nublado a 4000 pies sobre el nivel del aeródromo
Temperatura: 2 °C
Rocío: -0 °C
Humedad_relativa: 87%
Presión: 997 hPa
No se esperan cambios significativos en las próximas 2 horas
METAR del 06-12-2022 a las 06:00 UTC
Para mayor información visite www.meteochile.cl
METAR SCCI 060600Z 28008KT 9999 BKN040 02/M00 Q0997 NOSIG
Viento: dirección 280 grados, velocidad 8 nudos
Visibilidad: 10 km o más
Nubes: Nublado a 4000 pies sobre el nivel del aeródromo
Temperatura: 2 °C
Rocío: -0 °C
Humedad_relativa: 87%
Presión: 997 hPa
No se esperan cambios significativos en las próximas 2 horas
METAR del 06-12-2022 a las 05:00 UTC
Para mayor información visite www.meteochile.cl
METAR SCCI 060500Z 28007KT 9999 FEW040 BKN100 04/01 Q0997 NOSIG
Viento: dirección 280 grados, velocidad 7 nudos
Visibilidad: 10 km o más
Nubes: Escasa nubosidad a 4000 pies sobre el nivel del aeródromo
Nubes: Nublado a 10000 pies sobre el nivel del aeródromo
Temperatura: 4 °C
Rocío: 1 °C
Humedad_relativa: 81%
Presión: 997 hPa
No se esperan cambios significativos en las próximas 2 horas
METAR del 06-12-2022 a las 04:00 UTC
Para mayor información visite www.meteochile.cl
METAR SCCI 060400Z 27006KT 9999 -SHRA FEW040 BKN100 04/01 Q0996 NOSIG
Viento: dirección 270 grados, velocidad 6 nudos
Visibilidad: 10 km o más
Débil ChubascosLluvia
Nubes: Escasa nubosidad a 4000 pies sobre el nivel del aeródromo
Nubes: Nublado a 10000 pies sobre el nivel del aeródromo
Temperatura: 4 °C
Rocío: 1 °C
Humedad_relativa: 81%
Presión: 996 hPa
No se esperan cambios significativos en las próximas 2 horas
METAR del 06-12-2022 a las 03:00 UTC
Para mayor información visite www.meteochile.cl
METAR SCCI 060300Z 26009KT 9999 FEW040 SCT100 05/M00 Q0996 NOSIG
Viento: dirección 260 grados, velocidad 9 nudos
Visibilidad: 10 km o más
Nubes: Escasa nubosidad a 4000 pies sobre el nivel del aeródromo
Nubes: Nubosidad parcial a 10000 pies sobre el nivel del aeródromo
Temperatura: 5 °C
Rocío: -0 °C
Humedad_relativa: 70%
Presión: 996 hPa
No se esperan cambios significativos en las próximas 2 horas
METAR del 06-12-2022 a las 01:00 UTC
Para mayor información visite www.meteochile.cl
METAR SCCI 060100Z 26013KT 9999 FEW040 SCT100 06/M02 Q0995 NOSIG
Viento: dirección 260 grados, velocidad 13 nudos
Visibilidad: 10 km o más
Nubes: Escasa nubosidad a 4000 pies sobre el nivel del aeródromo
Nubes: Nubosidad parcial a 10000 pies sobre el nivel del aeródromo
Temperatura: 6 °C
Rocío: -2 °C
Humedad_relativa: 56%
Presión: 995 hPa
No se esperan cambios significativos en las próximas 2 horas